Rising Eagle — J8B4538 — position and weather

sailwx.info

Track history (hours):
 
Tides and Currents Weather Stations Pressure Air Temp Water Temp Dewpoint Dewpoint Depression Visibility Wind Speed Wind Dir Waves Ship Positions

Rising Eagle

Last reported at 2015-Jul-04 01:07 UTC. Time now 2015-Jul-04 18:59 UTC.
Position N 36°45' E 026°26'.

Length 167 m; draft 9.7 m.

Type: Cargo ship. MMSI: 376369000.

Date/timePositionNaut miles runAvg speedWind from/ knotsBaromVisibWave heightAir tempDewpointWater temp
2015-Jul-04 01:07N 36°45' E 026°26'912.1
2015-Jul-04 00:21N 36°52' E 026°18'2211.9
2015-Jul-03 22:32N 37°10' E 026°03'1211.8
2015-Jul-03 21:33N 37°20' E 025°55'1211.8
2015-Jul-03 20:34N 37°30' E 025°48'1212.1
2015-Jul-03 19:34N 37°41' E 025°41'24610.2
2015-Jul-02 19:30N 40°56' E 028°53'6 6.3
2015-Jul-02 18:28N 41°01' E 028°59'19 9.8
2015-Jul-02 16:33N 41°18' E 029°08'18 4.4
2015-Jul-02 12:24N 41°30' E 029°28'25811.8
2015-Jul-01 14:33N 43°32' E 034°36'2311.7
2015-Jul-01 12:33N 43°43' E 035°05'1411.5
2015-Jul-01 11:20N 43°50' E 035°21'911.6
2015-Jul-01 10:34N 43°55' E 035°32'  
Track history (hours):
 
Tides and Currents Weather Stations Pressure Air Temp Water Temp Dewpoint Dewpoint Depression Visibility Wind Speed Wind Dir Waves Ship Positions

Rising Eagle

Last reported at 2015-Jul-04 01:07 UTC. Time now 2015-Jul-04 18:59 UTC.
Position N 36°45' E 026°26'.

Length 167 m; draft 9.7 m.

Type: Cargo ship. MMSI: 376369000.

Date/timePositionNaut miles runAvg speedWind from/ knotsBaromVisibWave heightAir tempDewpointWater temp
2015-Jul-04 01:07N 36°45' E 026°26'912.1
2015-Jul-04 00:21N 36°52' E 026°18'2211.9
2015-Jul-03 22:32N 37°10' E 026°03'1211.8
2015-Jul-03 21:33N 37°20' E 025°55'1211.8
2015-Jul-03 20:34N 37°30' E 025°48'1212.1
2015-Jul-03 19:34N 37°41' E 025°41'24610.2
2015-Jul-02 19:30N 40°56' E 028°53'6 6.3
2015-Jul-02 18:28N 41°01' E 028°59'19 9.8
2015-Jul-02 16:33N 41°18' E 029°08'18 4.4
2015-Jul-02 12:24N 41°30' E 029°28'25811.8
2015-Jul-01 14:33N 43°32' E 034°36'2311.7
2015-Jul-01 12:33N 43°43' E 035°05'1411.5
2015-Jul-01 11:20N 43°50' E 035°21'911.6
2015-Jul-01 10:34N 43°55' E 035°32'  

Dump ship's entire track history